Time;durP1;ratioP1;P1;durP2;ratioP2;P2;SDS_P1;SDS_P2;PMS_P1;PMS_P2;Temp;Humidity;BMP_temperature;BMP_pressure;BME280_temperature;BME280_humidity;BME280_pressure;Samples;Min_cycle;Max_cycle;Signal;HPM_P1;HPM_P2
2022/10/14 00:01:47;;;;;;;14.75;7.20;;;12.20;99.90;;;;;;5030928;28;20021;-68
2022/10/14 00:04:13;;;;;;;13.82;6.78;;;12.10;99.90;;;;;;5031690;28;20013;-68
2022/10/14 00:06:39;;;;;;;11.13;7.28;;;12.20;99.90;;;;;;5030723;28;20607;-68
2022/10/14 00:09:08;;;;;;;16.15;7.82;;;12.20;99.90;;;;;;5029501;28;20382;-69
2022/10/14 00:11:35;;;;;;;12.77;7.43;;;12.10;99.90;;;;;;5028738;28;20026;-67
2022/10/14 00:14:07;;;;;;;13.88;8.13;;;12.20;99.90;;;;;;5029245;28;20033;-68
2022/10/14 00:16:36;;;;;;;13.50;8.43;;;12.20;99.90;;;;;;5030219;28;20496;-67
2022/10/14 00:19:03;;;;;;;17.67;8.75;;;12.20;99.90;;;;;;5028092;28;20022;-68
2022/10/14 00:21:30;;;;;;;12.80;7.70;;;12.20;99.90;;;;;;5028340;28;20029;-68
2022/10/14 00:23:56;;;;;;;14.73;7.85;;;12.20;99.90;;;;;;5030944;28;20096;-68
2022/10/14 00:26:29;;;;;;;15.02;8.20;;;12.20;99.90;;;;;;5031261;28;20566;-68
2022/10/14 00:28:56;;;;;;;16.30;8.30;;;12.20;99.90;;;;;;5031008;28;20025;-69
2022/10/14 00:31:22;;;;;;;13.23;8.27;;;12.20;99.90;;;;;;5029613;28;20040;-67
2022/10/14 00:33:48;;;;;;;14.02;7.38;;;12.20;99.90;;;;;;5031011;28;20041;-68
2022/10/14 00:36:16;;;;;;;14.13;7.80;;;12.20;99.90;;;;;;5029789;28;20029;-69
2022/10/14 00:38:44;;;;;;;12.38;7.22;;;12.20;99.90;;;;;;5030249;28;20026;-68
2022/10/14 00:41:13;;;;;;;11.32;7.82;;;12.20;99.90;;;;;;5025923;28;20021;-67
2022/10/14 00:44:14;;;;;;;14.57;7.90;;;12.20;99.90;;;;;;5032294;28;20017;-66
2022/10/14 00:46:45;;;;;;;18.02;7.95;;;12.20;99.90;;;;;;5029831;28;20512;-66
2022/10/14 00:49:27;;;;;;;16.50;6.93;;;12.20;99.90;;;;;;5030064;28;20418;-67
2022/10/14 00:52:05;;;;;;;12.93;8.18;;;12.20;99.90;;;;;;5030870;28;20029;-66
2022/10/14 00:54:36;;;;;;;12.95;7.75;;;12.20;99.90;;;;;;5031512;28;20159;-66
2022/10/14 00:57:02;;;;;;;14.20;8.13;;;12.20;99.90;;;;;;5030404;28;20033;-67
2022/10/14 00:59:29;;;;;;;11.50;8.05;;;12.20;99.90;;;;;;5029429;28;20048;-67
2022/10/14 01:01:54;;;;;;;12.10;7.75;;;12.20;99.90;;;;;;5029307;28;20075;-67
2022/10/14 01:04:20;;;;;;;14.40;7.85;;;12.30;99.90;;;;;;5031288;28;20531;-67
2022/10/14 01:07:23;;;;;;;13.45;7.25;;;12.20;99.90;;;;;;5030502;28;20029;-66
2022/10/14 01:10:06;;;;;;;12.43;7.53;;;12.20;99.90;;;;;;5024563;28;20021;-66
2022/10/14 01:12:41;;;;;;;15.85;8.13;;;12.30;99.90;;;;;;5029412;28;20037;-67
2022/10/14 01:15:27;;;;;;;12.05;7.85;;;12.20;99.90;;;;;;5031484;28;20022;-67
2022/10/14 01:17:58;;;;;;;14.55;7.68;;;12.30;99.90;;;;;;5025491;28;20083;-67
2022/10/14 01:20:30;;;;;;;13.18;7.28;;;12.20;99.90;;;;;;5029296;28;20041;-66
2022/10/14 01:23:21;;;;;;;14.57;7.90;;;12.30;99.90;;;;;;5028421;28;20080;-67
2022/10/14 01:26:28;;;;;;;10.73;6.47;;;12.20;99.90;;;;;;5024032;28;20033;-67
2022/10/14 01:28:59;;;;;;;11.93;6.82;;;12.30;99.90;;;;;;5022431;28;20504;-66
2022/10/14 01:31:35;;;;;;;10.80;6.88;;;12.20;99.90;;;;;;5028832;28;20068;-67
2022/10/14 01:34:07;;;;;;;9.35;5.80;;;12.20;99.90;;;;;;5029609;28;20496;-67
2022/10/14 01:36:44;;;;;;;12.95;7.05;;;12.30;99.90;;;;;;5028293;28;20026;-66
2022/10/14 01:39:19;;;;;;;12.32;6.53;;;12.20;99.90;;;;;;5026862;28;20023;-67
2022/10/14 01:41:50;;;;;;;10.55;6.22;;;12.20;99.90;;;;;;5028820;28;20071;-67
2022/10/14 01:44:18;;;;;;;13.80;6.65;;;12.20;99.90;;;;;;5028212;28;20029;-67
2022/10/14 01:46:49;;;;;;;10.77;6.80;;;12.20;99.90;;;;;;5024907;28;20048;-66
2022/10/14 01:49:27;;;;;;;9.43;6.38;;;12.30;99.90;;;;;;5020924;28;20076;-67
2022/10/14 01:51:58;;;;;;;13.10;6.43;;;12.30;99.90;;;;;;5026957;28;20030;-67
2022/10/14 01:54:30;;;;;;;15.55;7.03;;;12.30;99.90;;;;;;5018911;28;20041;-67
2022/10/14 01:56:59;;;;;;;13.80;7.07;;;12.30;99.90;;;;;;5029266;28;20381;-67
2022/10/14 01:59:26;;;;;;;13.10;6.30;;;12.30;99.90;;;;;;5030475;28;20075;-66
2022/10/14 02:01:51;;;;;;;9.93;6.78;;;12.30;99.90;;;;;;5030569;28;20471;-67
2022/10/14 02:04:22;;;;;;;13.50;6.57;;;12.30;99.90;;;;;;5030431;28;20036;-67
2022/10/14 02:06:58;;;;;;;12.27;7.15;;;12.30;99.90;;;;;;5029759;28;20088;-67
2022/10/14 02:09:47;;;;;;;10.90;6.63;;;12.30;99.90;;;;;;5030418;28;20029;-67
2022/10/14 02:12:27;;;;;;;11.00;6.50;;;12.30;99.90;;;;;;5030636;28;20093;-67
2022/10/14 02:15:28;;;;;;;11.88;6.03;;;12.30;99.90;;;;;;5030486;28;20037;-67
2022/10/14 02:18:08;;;;;;;12.27;6.32;;;12.30;99.90;;;;;;5030105;28;20029;-67
2022/10/14 02:20:43;;;;;;;10.90;6.47;;;12.30;99.90;;;;;;5025744;28;20366;-67
2022/10/14 02:23:21;;;;;;;12.02;6.22;;;12.30;99.90;;;;;;5015837;28;20032;-67
2022/10/14 02:25:48;;;;;;;9.65;6.68;;;12.30;99.90;;;;;;5030245;28;20021;-67
2022/10/14 02:28:20;;;;;;;15.70;6.95;;;12.30;99.90;;;;;;5029952;28;20060;-67
2022/10/14 02:30:51;;;;;;;12.00;6.15;;;12.30;99.90;;;;;;5030373;28;20033;-69
2022/10/14 02:33:20;;;;;;;10.40;5.90;;;12.30;99.90;;;;;;5030439;28;20076;-67
2022/10/14 02:35:48;;;;;;;12.10;6.70;;;12.30;99.90;;;;;;5030314;28;20038;-67
2022/10/14 02:38:15;;;;;;;11.00;5.78;;;12.30;99.90;;;;;;5028086;28;20506;-67
2022/10/14 02:40:45;;;;;;;12.32;5.65;;;12.30;99.90;;;;;;5028792;28;20489;-66
2022/10/14 02:43:11;;;;;;;10.57;6.53;;;12.30;99.90;;;;;;5030176;28;20022;-67
2022/10/14 02:45:38;;;;;;;8.10;5.82;;;12.30;99.90;;;;;;5030222;28;20022;-67
2022/10/14 02:48:04;;;;;;;8.73;5.68;;;12.40;99.90;;;;;;5029863;28;20400;-67
2022/10/14 02:50:30;;;;;;;11.85;5.80;;;12.40;99.90;;;;;;5029635;28;20036;-68
2022/10/14 02:52:56;;;;;;;10.73;6.43;;;12.40;99.90;;;;;;5030128;28;20029;-67
2022/10/14 02:55:21;;;;;;;12.70;5.68;;;12.40;99.90;;;;;;5030041;28;20034;-66
2022/10/14 02:57:47;;;;;;;8.90;5.20;;;12.30;99.90;;;;;;5027477;28;20030;-67
2022/10/14 03:00:13;;;;;;;10.07;6.05;;;12.40;99.90;;;;;;5028824;28;20026;-66
2022/10/14 03:02:39;;;;;;;13.52;5.93;;;12.40;99.90;;;;;;5026158;28;20492;-67
2022/10/14 03:05:05;;;;;;;9.98;6.22;;;12.30;99.90;;;;;;5028094;28;20041;-67
2022/10/14 03:07:30;;;;;;;11.05;6.10;;;12.40;99.90;;;;;;5026769;28;20663;-67
2022/10/14 03:09:57;;;;;;;9.27;6.60;;;12.40;99.90;;;;;;5028951;28;20122;-67
2022/10/14 03:12:23;;;;;;;10.60;5.93;;;12.30;99.90;;;;;;5027859;28;20026;-66
2022/10/14 03:14:48;;;;;;;9.23;6.18;;;12.30;99.90;;;;;;5028774;28;20032;-67
2022/10/14 03:17:14;;;;;;;10.40;6.50;;;12.40;99.90;;;;;;5028579;28;20495;-67
2022/10/14 03:19:40;;;;;;;10.88;6.75;;;12.40;99.90;;;;;;5027696;28;20388;-67
2022/10/14 03:22:06;;;;;;;8.43;6.65;;;12.40;99.90;;;;;;5027906;28;20022;-67
2022/10/14 03:24:31;;;;;;;9.77;6.55;;;12.40;99.90;;;;;;5027403;28;20511;-67
2022/10/14 03:26:57;;;;;;;11.05;6.53;;;12.40;99.90;;;;;;5028780;28;20474;-67
2022/10/14 03:29:23;;;;;;;11.40;6.07;;;12.40;99.90;;;;;;5033010;28;20560;-67
2022/10/14 03:31:48;;;;;;;9.80;6.88;;;12.40;99.90;;;;;;5032615;28;20030;-67
2022/10/14 03:34:14;;;;;;;12.30;6.22;;;12.40;99.90;;;;;;5029718;28;20032;-68
2022/10/14 03:36:39;;;;;;;10.00;6.43;;;12.40;99.90;;;;;;5030951;28;20477;-68
2022/10/14 03:39:05;;;;;;;9.02;6.40;;;12.40;99.90;;;;;;5031835;28;20071;-67
2022/10/14 03:41:30;;;;;;;12.70;6.82;;;12.40;99.90;;;;;;5032524;28;20016;-68
2022/10/14 03:43:56;;;;;;;7.90;5.70;;;12.40;99.90;;;;;;5033192;28;20052;-68
2022/10/14 03:46:22;;;;;;;13.10;6.22;;;12.40;99.90;;;;;;5033153;28;20397;-70
2022/10/14 03:48:47;;;;;;;9.98;6.32;;;12.40;99.90;;;;;;5032092;28;20096;-68
2022/10/14 03:51:13;;;;;;;11.15;7.20;;;12.40;99.90;;;;;;5032175;28;20022;-69
2022/10/14 03:53:39;;;;;;;10.88;7.05;;;12.40;99.90;;;;;;5032152;28;20025;-68
2022/10/14 03:56:05;;;;;;;8.38;5.93;;;12.40;99.90;;;;;;5027167;28;20044;-68
2022/10/14 03:58:31;;;;;;;10.00;6.60;;;12.40;99.90;;;;;;5030310;28;20048;-69
2022/10/14 04:00:57;;;;;;;9.65;6.32;;;12.40;99.90;;;;;;5029650;28;20052;-69
2022/10/14 04:03:22;;;;;;;11.27;7.43;;;12.40;99.90;;;;;;5031457;28;20155;-69
2022/10/14 04:05:48;;;;;;;18.70;7.30;;;12.40;99.90;;;;;;5030929;28;20535;-68
2022/10/14 04:08:13;;;;;;;17.27;6.70;;;12.40;99.90;;;;;;5030421;28;20025;-69
2022/10/14 04:10:39;;;;;;;11.73;7.18;;;12.40;99.90;;;;;;5027418;28;20159;-69
2022/10/14 04:13:04;;;;;;;9.77;6.03;;;12.40;99.90;;;;;;5022733;28;20018;-69
2022/10/14 04:15:30;;;;;;;13.52;6.80;;;12.40;99.90;;;;;;5030016;28;20021;-69
2022/10/14 04:17:56;;;;;;;12.48;6.60;;;12.40;99.90;;;;;;5030995;28;20065;-69
2022/10/14 04:20:22;;;;;;;14.18;6.95;;;12.40;99.90;;;;;;5030228;28;20025;-68
2022/10/14 04:22:48;;;;;;;9.10;6.68;;;12.40;99.90;;;;;;5031711;28;20611;-69
2022/10/14 04:25:13;;;;;;;10.30;6.65;;;12.40;99.90;;;;;;5031365;28;20120;-68
2022/10/14 04:27:39;;;;;;;7.82;5.70;;;12.40;99.90;;;;;;5031410;28;20036;-69
2022/10/14 04:30:05;;;;;;;8.68;5.93;;;12.40;99.90;;;;;;5031093;28;20377;-69
2022/10/14 04:32:31;;;;;;;7.80;5.47;;;12.40;99.90;;;;;;5031223;28;20026;-68
2022/10/14 04:34:57;;;;;;;10.13;6.57;;;12.40;99.90;;;;;;5030741;28;20032;-69
2022/10/14 04:37:22;;;;;;;9.38;6.55;;;12.40;99.90;;;;;;5029889;28;20650;-68
2022/10/14 04:39:48;;;;;;;9.23;6.75;;;12.30;99.90;;;;;;5029925;28;20516;-68
2022/10/14 04:42:13;;;;;;;7.65;5.85;;;12.30;99.90;;;;;;5030954;28;20037;-68
2022/10/14 04:44:39;;;;;;;10.18;6.35;;;12.30;99.90;;;;;;5031830;28;20142;-68
2022/10/14 04:47:05;;;;;;;12.20;6.40;;;12.30;99.90;;;;;;5026466;28;20518;-69
2022/10/14 04:49:30;;;;;;;13.90;6.35;;;12.30;99.90;;;;;;5024864;28;20029;-69
2022/10/14 04:51:56;;;;;;;11.43;6.13;;;12.30;99.90;;;;;;5032108;28;20111;-68
2022/10/14 04:54:22;;;;;;;8.40;6.20;;;12.30;99.90;;;;;;5030895;28;20026;-68
2022/10/14 04:56:47;;;;;;;9.93;5.97;;;12.40;99.90;;;;;;5026916;28;20488;-68
2022/10/14 04:59:13;;;;;;;11.23;6.43;;;12.40;99.90;;;;;;5017997;28;20030;-69
2022/10/14 05:01:39;;;;;;;7.47;5.70;;;12.30;99.90;;;;;;5029306;28;20048;-68
2022/10/14 05:04:04;;;;;;;10.55;6.10;;;12.40;99.90;;;;;;5031327;28;20067;-69
2022/10/14 05:06:30;;;;;;;11.02;6.50;;;12.40;99.90;;;;;;4979986;28;20135;-68
2022/10/14 05:08:56;;;;;;;8.10;5.78;;;12.30;99.90;;;;;;5028181;28;20049;-68
2022/10/14 05:11:21;;;;;;;9.15;5.20;;;12.30;99.90;;;;;;5028141;28;20033;-69
2022/10/14 05:13:47;;;;;;;17.90;6.38;;;12.40;99.90;;;;;;5030920;28;20109;-69
2022/10/14 05:16:13;;;;;;;10.00;5.53;;;12.30;99.90;;;;;;5029419;28;20036;-69
2022/10/14 05:18:39;;;;;;;7.47;5.70;;;12.30;99.90;;;;;;5029346;28;20071;-69
2022/10/14 05:21:04;;;;;;;8.90;5.90;;;12.40;99.90;;;;;;5029851;28;20021;-69
2022/10/14 05:23:30;;;;;;;9.20;6.78;;;12.40;99.90;;;;;;5029144;28;20133;-69
2022/10/14 05:25:55;;;;;;;14.50;7.38;;;12.30;99.90;;;;;;5030102;28;20033;-69
2022/10/14 05:28:21;;;;;;;10.45;6.35;;;12.40;99.90;;;;;;5033525;23;20057;-62
2022/10/14 05:30:47;;;;;;;9.90;6.78;;;12.40;99.90;;;;;;5008260;28;20060;-63
2022/10/14 05:33:12;;;;;;;10.02;6.68;;;12.40;99.90;;;;;;5010123;28;20499;-63
2022/10/14 05:35:38;;;;;;;9.52;6.90;;;12.40;99.90;;;;;;5008530;28;20450;-63
2022/10/14 05:38:04;;;;;;;10.23;6.38;;;12.30;99.90;;;;;;5007279;28;20417;-62
2022/10/14 05:40:29;;;;;;;12.43;7.32;;;12.30;99.90;;;;;;5006905;28;20024;-63
2022/10/14 05:42:55;;;;;;;10.60;6.68;;;12.40;99.90;;;;;;5009540;28;20026;-64
2022/10/14 05:45:21;;;;;;;14.23;7.43;;;12.40;99.90;;;;;;5010801;28;20162;-63
2022/10/14 05:47:46;;;;;;;9.98;7.38;;;12.40;99.90;;;;;;5003427;28;20022;-63
2022/10/14 05:50:12;;;;;;;15.27;7.47;;;12.40;99.90;;;;;;5008846;28;20108;-63
2022/10/14 05:52:39;;;;;;;11.15;6.85;;;12.40;99.90;;;;;;5002163;28;20108;-62
2022/10/14 05:55:06;;;;;;;13.57;7.53;;;12.40;99.90;;;;;;5010902;28;20484;-62
2022/10/14 05:57:32;;;;;;;10.95;6.95;;;12.40;99.90;;;;;;5009965;28;20065;-64
2022/10/14 05:59:58;;;;;;;10.13;7.18;;;12.50;99.90;;;;;;5010324;28;20477;-63
2022/10/14 06:02:24;;;;;;;13.48;7.38;;;12.50;99.90;;;;;;5006073;28;20027;-63
2022/10/14 06:04:49;;;;;;;12.85;7.75;;;12.50;99.90;;;;;;5008041;28;20022;-63
2022/10/14 06:07:15;;;;;;;14.55;7.88;;;12.50;99.90;;;;;;4996895;28;20104;-63
2022/10/14 06:09:41;;;;;;;13.90;7.20;;;12.50;99.90;;;;;;5007072;28;20049;-64
2022/10/14 06:12:07;;;;;;;12.07;7.20;;;12.50;99.90;;;;;;5005409;28;20066;-63
2022/10/14 06:14:32;;;;;;;10.40;7.28;;;12.50;99.90;;;;;;5007452;28;20696;-62
2022/10/14 06:16:58;;;;;;;11.55;6.57;;;12.50;99.90;;;;;;5003555;28;20026;-63
2022/10/14 06:19:23;;;;;;;12.57;6.90;;;12.60;99.90;;;;;;5008142;28;20105;-63
2022/10/14 06:21:49;;;;;;;11.52;6.80;;;12.60;99.90;;;;;;5008624;28;20025;-63
2022/10/14 06:24:15;;;;;;;21.25;7.82;;;12.60;99.90;;;;;;5010178;28;20500;-64
2022/10/14 06:26:41;;;;;;;11.38;7.18;;;12.70;99.90;;;;;;5007753;28;20037;-63
2022/10/14 06:29:06;;;;;;;8.50;6.05;;;12.70;99.90;;;;;;5009945;28;20494;-63
2022/10/14 06:31:32;;;;;;;14.48;6.35;;;12.70;99.90;;;;;;5007293;28;20056;-63
2022/10/14 06:33:57;;;;;;;9.93;6.30;;;12.70;99.90;;;;;;5008531;28;20114;-63
2022/10/14 06:36:23;;;;;;;10.68;6.18;;;12.70;99.90;;;;;;5006975;28;20571;-62
2022/10/14 06:38:48;;;;;;;11.00;6.70;;;12.80;99.90;;;;;;5008333;28;20018;-62
2022/10/14 06:41:14;;;;;;;12.02;6.32;;;12.80;99.90;;;;;;5007748;28;20029;-63
2022/10/14 06:43:40;;;;;;;10.25;6.32;;;12.90;99.90;;;;;;5007126;28;20021;-63
2022/10/14 06:46:06;;;;;;;11.07;5.30;;;13.00;99.90;;;;;;5004207;28;20044;-64
2022/10/14 06:48:32;;;;;;;9.25;6.30;;;13.00;99.90;;;;;;5006914;28;20033;-62
2022/10/14 06:50:59;;;;;;;10.70;5.82;;;13.10;99.90;;;;;;5007282;28;20519;-64
2022/10/14 06:53:25;;;;;;;8.68;6.80;;;13.20;99.90;;;;;;5009345;28;20157;-63
2022/10/14 06:56:03;;;;;;;8.77;5.80;;;13.30;99.90;;;;;;5009004;28;20044;-63
2022/10/14 06:58:30;;;;;;;6.72;5.18;;;13.30;99.90;;;;;;5019074;28;20037;-63
2022/10/14 07:01:04;;;;;;;9.93;6.05;;;13.40;99.90;;;;;;5003471;28;20022;-64
2022/10/14 07:03:30;;;;;;;8.60;5.68;;;13.40;99.90;;;;;;5027804;28;20033;-63
2022/10/14 07:05:55;;;;;;;8.98;5.72;;;13.50;99.90;;;;;;5001256;28;20404;-64
2022/10/14 07:08:21;;;;;;;7.25;5.75;;;13.50;99.90;;;;;;5027565;28;20030;-63
2022/10/14 07:10:47;;;;;;;9.80;6.38;;;13.50;99.90;;;;;;5021820;28;20122;-64
2022/10/14 07:13:13;;;;;;;9.65;5.45;;;13.40;99.90;;;;;;5026685;28;20053;-63
2022/10/14 07:15:38;;;;;;;10.68;6.15;;;13.40;99.90;;;;;;5031923;28;20551;-64
2022/10/14 07:18:05;;;;;;;9.98;5.53;;;13.40;99.90;;;;;;5028145;28;20108;-62
2022/10/14 07:20:32;;;;;;;8.95;5.32;;;13.40;99.90;;;;;;5029580;28;20021;-63
2022/10/14 07:22:58;;;;;;;7.70;5.28;;;13.40;99.90;;;;;;5024978;28;20501;-62
2022/10/14 07:25:23;;;;;;;11.98;5.80;;;13.40;99.90;;;;;;5030766;28;20141;-64
2022/10/14 07:27:52;;;;;;;9.18;4.93;;;13.40;99.90;;;;;;5026244;28;20033;-63
2022/10/14 07:30:18;;;;;;;12.93;6.45;;;13.40;99.90;;;;;;5028563;28;20381;-64
2022/10/14 07:32:43;;;;;;;9.45;5.95;;;13.40;99.90;;;;;;5027519;28;20030;-64
2022/10/14 07:35:09;;;;;;;10.15;6.18;;;13.40;99.90;;;;;;5027357;28;20101;-62
2022/10/14 07:37:35;;;;;;;8.52;5.78;;;13.50;99.90;;;;;;5029822;28;20025;-63
2022/10/14 07:40:00;;;;;;;7.18;5.28;;;13.50;99.90;;;;;;5022629;28;20076;-64
2022/10/14 07:42:26;;;;;;;9.40;5.28;;;13.60;99.90;;;;;;5023302;28;20018;-64
2022/10/14 07:44:53;;;;;;;7.82;5.22;;;13.60;99.90;;;;;;5027455;28;20025;-64
2022/10/14 07:47:19;;;;;;;8.05;5.60;;;13.60;99.90;;;;;;5024745;28;20443;-63
2022/10/14 07:49:44;;;;;;;9.98;5.65;;;13.70;99.90;;;;;;5024678;28;20052;-63
2022/10/14 07:52:10;;;;;;;8.00;5.80;;;13.80;99.90;;;;;;5028040;28;20485;-63
2022/10/14 07:54:36;;;;;;;9.65;5.40;;;13.90;99.90;;;;;;5027408;28;20103;-63
2022/10/14 07:57:01;;;;;;;7.95;4.93;;;13.90;99.90;;;;;;5023263;28;20029;-63
2022/10/14 07:59:27;;;;;;;6.97;5.28;;;13.90;99.90;;;;;;5029333;28;20021;-63
2022/10/14 08:01:54;;;;;;;8.52;5.55;;;14.10;99.90;;;;;;5029466;28;20018;-64
2022/10/14 08:04:19;;;;;;;5.70;4.53;;;14.10;99.90;;;;;;5026929;28;20694;-64
2022/10/14 08:06:49;;;;;;;7.40;4.35;;;14.20;99.90;;;;;;5013153;28;20045;-64
2022/10/14 08:09:15;;;;;;;8.25;4.97;;;14.30;99.90;;;;;;5026447;28;20103;-62
2022/10/14 08:11:42;;;;;;;7.28;4.57;;;14.40;99.90;;;;;;5026904;28;20029;-63
2022/10/14 08:14:07;;;;;;;9.40;5.25;;;14.50;99.90;;;;;;5026509;28;20029;-64
2022/10/14 08:16:34;;;;;;;7.38;4.50;;;14.60;99.90;;;;;;5025274;28;20602;-64
2022/10/14 08:19:03;;;;;;;7.10;4.57;;;14.70;99.90;;;;;;5029764;28;20021;-64
2022/10/14 08:21:28;;;;;;;7.25;4.32;;;14.70;99.90;;;;;;5021460;28;20039;-64
2022/10/14 08:23:54;;;;;;;6.95;4.47;;;14.70;99.90;;;;;;5023364;28;20536;-64
2022/10/14 08:26:29;;;;;;;5.22;4.00;;;14.80;99.90;;;;;;5030706;28;20021;-64
2022/10/14 08:28:56;;;;;;;5.70;3.85;;;14.70;99.90;;;;;;5023105;28;20109;-63
2022/10/14 08:31:21;;;;;;;5.95;3.75;;;14.70;99.90;;;;;;5029187;28;20029;-62
2022/10/14 08:33:47;;;;;;;5.85;3.70;;;14.70;99.90;;;;;;5025804;28;20029;-63
2022/10/14 08:36:14;;;;;;;6.50;4.30;;;14.60;99.90;;;;;;5030162;28;20032;-64
2022/10/14 08:38:40;;;;;;;6.05;3.55;;;14.60;99.90;;;;;;5030153;28;20118;-63
2022/10/14 08:41:22;;;;;;;5.88;4.00;;;14.50;99.90;;;;;;5028799;28;20507;-63
2022/10/14 08:44:26;;;;;;;7.45;3.97;;;14.50;99.90;;;;;;5028005;28;20036;-64
2022/10/14 08:47:00;;;;;;;7.18;3.58;;;14.40;99.90;;;;;;5021232;28;20048;-64
2022/10/14 08:49:36;;;;;;;;;;;14.40;99.90;;;;;;5025956;28;20026;-64
2022/10/14 08:52:15;;;;;;;7.90;4.57;;;14.50;99.90;;;;;;5023300;28;20378;-63
2022/10/14 08:54:44;;;;;;;6.82;4.45;;;14.50;99.90;;;;;;5016036;28;20025;-63
2022/10/14 08:57:30;;;;;;;6.00;3.75;;;14.50;99.90;;;;;;5024718;28;20037;-63
2022/10/14 08:59:56;;;;;;;7.45;4.35;;;14.60;99.90;;;;;;5025262;28;20072;-64
2022/10/14 09:02:45;;;;;;;7.13;4.10;;;14.60;99.90;;;;;;5023346;28;20017;-65
2022/10/14 09:05:21;;;;;;;7.60;4.35;;;14.90;99.90;;;;;;5027962;28;20540;-63
2022/10/14 09:07:49;;;;;;;6.55;4.30;;;15.00;99.90;;;;;;5006012;28;20041;-64
2022/10/14 09:10:30;;;;;;;6.80;4.20;;;15.00;99.90;;;;;;5030290;28;20048;-64
2022/10/14 09:13:02;;;;;;;4.97;4.03;;;15.10;99.90;;;;;;5024655;28;20041;-64
2022/10/14 09:15:37;;;;;;;7.35;4.30;;;15.10;99.90;;;;;;5028585;28;20025;-64
2022/10/14 09:18:04;;;;;;;8.20;4.10;;;15.30;99.90;;;;;;5029448;28;20053;-64
2022/10/14 09:20:30;;;;;;;7.47;4.82;;;15.30;99.90;;;;;;5025752;28;20013;-64
2022/10/14 09:23:14;;;;;;;6.50;4.05;;;15.50;99.90;;;;;;5044025;28;20028;-63
2022/10/14 09:25:50;;;;;;;8.30;4.13;;;15.40;99.90;;;;;;5018287;28;20544;-64
2022/10/14 09:28:16;;;;;;;10.68;4.80;;;15.40;99.90;;;;;;5025693;28;20484;-64
2022/10/14 09:30:41;;;;;;;11.10;6.13;;;15.50;99.90;;;;;;5026337;28;20037;-64
2022/10/14 09:33:16;;;;;;;10.05;5.20;;;15.60;99.90;;;;;;5023023;28;20029;-64
2022/10/14 09:35:43;;;;;;;9.27;4.80;;;15.60;99.90;;;;;;5025011;28;20025;-63
2022/10/14 09:38:10;;;;;;;9.40;5.60;;;15.60;99.90;;;;;;5023706;28;20315;-64
2022/10/14 09:40:42;;;;;;;8.07;4.90;;;15.60;99.90;;;;;;5021806;28;20040;-64
2022/10/14 09:43:08;;;;;;;8.77;4.70;;;15.60;99.90;;;;;;5025908;28;20026;-64
2022/10/14 09:46:01;;;;;;;7.55;4.72;;;15.70;99.90;;;;;;5028495;28;20028;-63
2022/10/14 09:48:49;;;;;;;9.70;5.40;;;15.80;99.90;;;;;;5020866;28;20451;-63
2022/10/14 09:51:22;;;;;;;10.00;6.47;;;15.70;99.90;;;;;;5021823;28;20029;-64
2022/10/14 09:53:52;;;;;;;9.63;6.03;;;15.80;99.90;;;;;;5024632;28;20561;-63
2022/10/14 09:56:26;;;;;;;14.15;6.10;;;15.80;99.90;;;;;;5045481;28;20037;-64
2022/10/14 09:58:55;;;;;;;15.70;5.32;;;15.90;99.90;;;;;;5022557;28;20400;-63
2022/10/14 10:01:24;;;;;;;12.27;6.22;;;15.90;99.90;;;;;;5026126;28;20500;-64
2022/10/14 10:03:51;;;;;;;8.50;5.80;;;16.00;99.90;;;;;;5026470;28;20448;-65
2022/10/14 10:06:24;;;;;;;11.85;5.95;;;16.10;99.90;;;;;;5005365;28;20049;-64
2022/10/14 10:08:54;;;;;;;11.13;6.38;;;16.10;99.90;;;;;;5025123;28;20567;-65
2022/10/14 10:11:37;;;;;;;10.75;6.03;;;16.10;99.90;;;;;;5017842;28;20045;-64
2022/10/14 10:14:31;;;;;;;7.32;5.25;;;16.40;99.90;;;;;;5025156;28;20025;-63
2022/10/14 10:17:08;;;;;;;9.20;6.37;;;16.60;99.90;;;;;;5026274;28;20135;-64
2022/10/14 10:19:46;;;;;;;10.00;5.28;;;16.80;99.90;;;;;;5018918;28;20284;-64
2022/10/14 10:22:25;;;;;;;8.13;5.85;;;16.80;99.90;;;;;;5027832;28;20021;-63
2022/10/14 10:24:59;;;;;;;10.85;5.93;;;16.70;99.90;;;;;;5027806;28;20021;-64
2022/10/14 10:27:35;;;;;;;12.05;5.68;;;16.60;99.90;;;;;;5021881;28;20298;-63
2022/10/14 10:30:27;;;;;;;8.40;5.18;;;16.60;99.90;;;;;;5028418;28;20029;-64
2022/10/14 10:33:32;;;;;;;9.35;5.88;;;16.60;99.90;;;;;;5024193;28;20373;-64
2022/10/14 10:36:04;;;;;;;10.05;5.63;;;16.60;99.90;;;;;;5023648;28;20021;-63
2022/10/14 10:38:36;;;;;;;15.00;7.07;;;16.60;99.90;;;;;;5026557;28;20500;-64
2022/10/14 10:41:38;;;;;;;13.45;5.93;;;16.80;99.90;;;;;;5027457;28;20022;-64
2022/10/14 10:44:21;;;;;;;18.45;4.93;;;16.70;99.90;;;;;;5024241;28;20808;-63
2022/10/14 10:46:53;;;;;;;9.85;6.82;;;16.70;99.90;;;;;;5022119;28;20496;-64
2022/10/14 10:49:32;;;;;;;12.20;6.13;;;16.80;99.90;;;;;;5026557;28;20033;-62
2022/10/14 10:52:17;;;;;;;12.07;6.78;;;16.80;99.90;;;;;;5023738;28;20041;-64
2022/10/14 10:54:49;;;;;;;9.23;5.40;;;16.80;99.90;;;;;;5024677;28;20017;-64
2022/10/14 10:57:33;;;;;;;8.52;6.40;;;16.80;99.90;;;;;;5031857;28;20029;-63
2022/10/14 11:00:13;;;;;;;9.32;7.45;;;16.70;99.90;;;;;;5023135;28;20074;-63
2022/10/14 11:03:13;;;;;;;12.15;6.47;;;16.70;99.90;;;;;;5021514;28;20059;-64
2022/10/14 11:06:03;;;;;;;7.47;5.32;;;16.60;99.90;;;;;;5004939;28;20854;-64
2022/10/14 11:14:45;;;;;;;10.60;7.10;;;16.30;99.90;;;;;;5020576;28;20405;-63
2022/10/14 11:17:38;;;;;;;12.85;6.40;;;16.10;99.90;;;;;;5027034;28;20036;-63
2022/10/14 11:20:24;;;;;;;11.23;6.15;;;16.00;99.90;;;;;;5017222;28;20049;-64
2022/10/14 11:23:24;;;;;;;14.52;6.70;;;15.90;99.90;;;;;;5027117;28;20100;-64
2022/10/14 11:26:11;;;;;;;15.45;8.02;;;15.80;99.90;;;;;;5029128;28;20420;-63
2022/10/14 11:29:09;;;;;;;14.68;8.82;;;15.80;99.90;;;;;;5024921;28;20152;-63
2022/10/14 11:31:45;;;;;;;21.30;10.60;;;15.80;99.90;;;;;;5021792;28;20087;-63
2022/10/14 11:34:41;;;;;;;12.73;7.72;;;15.80;99.90;;;;;;5023211;28;20024;-64
2022/10/14 11:37:26;;;;;;;11.35;7.13;;;15.80;99.90;;;;;;5029928;28;20025;-66
2022/10/14 11:40:00;;;;;;;7.88;5.40;;;15.70;99.90;;;;;;5023940;28;20496;-64
2022/10/14 11:42:41;;;;;;;11.85;6.97;;;15.80;99.90;;;;;;5025050;28;20087;-64
2022/10/14 11:45:28;;;;;;;15.45;6.32;;;15.80;99.90;;;;;;5024712;28;20024;-64
2022/10/14 11:47:59;;;;;;;7.88;5.80;;;15.80;99.90;;;;;;5027676;28;20086;-63
2022/10/14 11:50:36;;;;;;;12.52;5.72;;;15.80;99.90;;;;;;5028785;28;20044;-65
2022/10/14 11:53:19;;;;;;;12.60;5.32;;;15.80;99.90;;;;;;5024926;28;20040;-63
2022/10/14 11:55:58;;;;;;;7.80;5.75;;;15.90;99.90;;;;;;5026499;28;20029;-63
2022/10/14 11:58:28;;;;;;;10.38;6.55;;;15.80;99.90;;;;;;5028700;28;20126;-63
2022/10/14 12:00:55;;;;;;;7.43;5.15;;;15.80;99.90;;;;;;5023117;28;20030;-65
2022/10/14 12:03:48;;;;;;;9.77;6.20;;;15.80;99.90;;;;;;5026389;28;20033;-64
2022/10/14 12:06:26;;;;;;;11.38;5.88;;;15.80;99.90;;;;;;5028084;28;20128;-63
2022/10/14 12:08:55;;;;;;;9.80;6.05;;;15.80;99.90;;;;;;5005314;28;20076;-64
2022/10/14 12:11:27;;;;;;;9.40;6.60;;;15.60;99.90;;;;;;5020416;28;20393;-63
2022/10/14 12:14:12;;;;;;;8.15;5.55;;;15.50;99.90;;;;;;5018568;28;20021;-64
2022/10/14 12:16:41;;;;;;;8.15;5.90;;;15.50;99.90;;;;;;5022423;28;20030;-64
2022/10/14 12:19:10;;;;;;;19.88;6.90;;;15.40;99.90;;;;;;5024494;28;20116;-64
2022/10/14 12:22:00;;;;;;;19.55;6.50;;;15.40;99.90;;;;;;5023372;28;20021;-63
2022/10/14 12:24:30;;;;;;;11.13;5.55;;;15.30;99.90;;;;;;5027090;28;20028;-64
2022/10/14 12:26:57;;;;;;;11.93;6.07;;;15.20;99.90;;;;;;5021401;28;20032;-63
2022/10/14 12:29:28;;;;;;;7.28;5.75;;;15.30;99.90;;;;;;5028455;28;20029;-65
2022/10/14 12:32:02;;;;;;;8.75;5.40;;;15.20;99.90;;;;;;5026631;28;20021;-64
2022/10/14 12:34:42;;;;;;;10.07;5.63;;;15.30;99.90;;;;;;5029644;28;20075;-64
2022/10/14 12:37:36;;;;;;;8.75;5.80;;;15.40;99.90;;;;;;5021616;28;20029;-65
2022/10/14 12:40:02;;;;;;;;;;;15.40;99.90;;;;;;5030269;28;20481;-63
2022/10/14 12:42:29;;;;;;;10.38;5.07;;;15.40;99.90;;;;;;5024645;28;20007;-64
2022/10/14 12:45:13;;;;;;;9.13;5.28;;;15.40;99.90;;;;;;5027934;28;20029;-63
2022/10/14 12:47:39;;;;;;;10.15;5.88;;;15.30;99.90;;;;;;5041026;28;20114;-63
2022/10/14 12:50:29;;;;;;;10.32;5.82;;;15.20;99.90;;;;;;5026251;28;20029;-63
2022/10/14 12:53:01;;;;;;;14.18;6.25;;;15.30;99.90;;;;;;5017077;28;20049;-63
2022/10/14 12:55:30;;;;;;;8.82;6.07;;;15.30;99.90;;;;;;5042589;23;20022;-67
2022/10/14 12:58:01;;;;;;;10.30;5.97;;;15.30;99.90;;;;;;5025414;28;20042;-66
2022/10/14 13:00:30;;;;;;;8.20;6.30;;;15.20;99.90;;;;;;5028778;28;20459;-69
2022/10/14 13:03:00;;;;;;;9.50;5.70;;;15.30;99.90;;;;;;5030938;28;20025;-71
2022/10/14 13:05:35;;;;;;;8.48;5.32;;;15.20;99.90;;;;;;5028617;28;20022;-70
2022/10/14 13:08:18;;;;;;;10.45;5.18;;;15.30;99.90;;;;;;5010011;28;20389;-68